Time;durP1;ratioP1;P1;durP2;ratioP2;P2;SDS_P1;SDS_P2;PMS_P1;PMS_P2;Temp;Humidity;BMP_temperature;BMP_pressure;BME280_temperature;BME280_humidity;BME280_pressure;Samples;Min_cycle;Max_cycle;Signal;HPM_P1;HPM_P2
2023/04/05 00:02:18;;;;;;;6.72;3.95;;;;;;;0.96;68.78;101950.09;4974149;28;20678;-69
2023/04/05 00:04:56;;;;;;;5.60;3.97;;;;;;;1.03;69.49;101956.66;4968877;28;20188;-68
2023/04/05 00:07:26;;;;;;;7.30;4.22;;;;;;;0.88;69.39;101956.00;4979438;28;20195;-68
2023/04/05 00:09:56;;;;;;;6.78;3.15;;;;;;;0.84;70.39;101945.69;4978417;28;20223;-69
2023/04/05 00:12:28;;;;;;;6.07;3.55;;;;;;;0.72;70.30;101954.59;4974068;28;20557;-69
2023/04/05 00:14:58;;;;;;;6.63;3.70;;;;;;;0.65;70.90;101946.19;4967164;28;20263;-68
2023/04/05 00:17:28;;;;;;;5.00;3.45;;;;;;;0.75;71.50;101943.69;4973613;28;20264;-69
2023/04/05 00:19:57;;;;;;;8.23;3.35;;;;;;;0.78;70.82;101943.44;4973804;28;20227;-69
2023/04/05 00:22:34;;;;;;;4.65;3.47;;;;;;;0.60;71.15;101948.34;4973961;28;20198;-66
2023/04/05 00:25:06;;;;;;;8.32;3.80;;;;;;;0.68;67.91;101947.75;4971668;28;20191;-68
2023/04/05 00:27:35;;;;;;;5.88;4.07;;;;;;;0.56;70.03;101946.00;4971437;28;20230;-68
2023/04/05 00:30:05;;;;;;;6.93;3.38;;;;;;;0.52;70.81;101944.53;4973713;28;20187;-69
2023/04/05 00:32:36;;;;;;;7.25;3.95;;;;;;;0.44;69.65;101943.28;4973452;28;20328;-68
2023/04/05 00:35:06;;;;;;;5.18;4.53;;;;;;;0.39;70.03;101948.06;4975481;28;20276;-68
2023/04/05 00:37:39;;;;;;;7.18;3.50;;;;;;;0.47;70.09;101936.03;4983752;28;20237;-68
2023/04/05 00:40:21;;;;;;;5.78;3.85;;;;;;;0.45;68.67;101938.78;4985613;28;20200;-69
2023/04/05 00:42:50;;;;;;;4.95;3.13;;;;;;;0.31;69.12;101939.81;4984075;28;20198;-69
2023/04/05 00:45:19;;;;;;;8.60;4.00;;;;;;;0.39;69.76;101940.09;4979547;28;20213;-69
2023/04/05 00:47:49;;;;;;;5.82;3.85;;;;;;;0.37;70.88;101936.72;4976547;28;20733;-71
2023/04/05 00:50:18;;;;;;;8.98;3.55;;;;;;;0.51;71.56;101932.19;4977654;28;20199;-70
2023/04/05 00:52:49;;;;;;;10.15;4.53;;;;;;;0.60;70.71;101936.81;4980970;28;20198;-69
2023/04/05 00:55:21;;;;;;;7.68;3.53;;;;;;;0.60;70.33;101931.50;4987091;28;20192;-68
2023/04/05 00:57:51;;;;;;;6.22;3.50;;;;;;;0.44;68.88;101924.63;4985729;28;20263;-68
2023/04/05 01:00:21;;;;;;;8.23;4.53;;;;;;;0.46;70.75;101932.53;4987865;28;20274;-69
2023/04/05 01:02:56;;;;;;;6.72;4.05;;;;;;;0.70;70.35;101927.19;4983250;28;20251;-69
2023/04/05 01:05:35;;;;;;;6.28;3.95;;;;;;;0.71;69.86;101924.44;4987681;28;20735;-68
2023/04/05 01:08:15;;;;;;;7.78;3.90;;;;;;;0.56;70.07;101924.69;4990730;28;20215;-67
2023/04/05 01:10:52;;;;;;;8.50;4.50;;;;;;;0.48;70.02;101921.75;4983649;28;20207;-68
2023/04/05 01:13:26;;;;;;;5.90;4.10;;;;;;;0.28;69.90;101926.72;4985647;28;20207;-68
2023/04/05 01:15:55;;;;;;;5.65;3.22;;;;;;;0.21;69.64;101920.13;4983705;28;20757;-69
2023/04/05 01:18:25;;;;;;;9.55;3.88;;;;;;;0.13;70.61;101927.81;4982687;28;20621;-68
2023/04/05 01:21:03;;;;;;;5.45;3.47;;;;;;;0.10;71.19;101922.69;4982126;28;20184;-68
2023/04/05 01:23:46;;;;;;;6.15;4.43;;;;;;;0.28;71.43;101926.72;4980153;28;20629;-68
2023/04/05 01:26:45;;;;;;;5.30;3.20;;;;;;;0.44;71.81;101927.28;4978529;28;20607;-70
2023/04/05 01:29:50;;;;;;;7.32;4.57;;;;;;;0.48;71.06;101927.09;4962932;28;20232;-68
2023/04/05 01:32:37;;;;;;;6.93;3.80;;;;;;;0.41;69.14;101921.34;4975777;28;20199;-69
2023/04/05 01:35:16;;;;;;;5.72;2.65;;;;;;;0.43;70.77;101919.44;4978915;28;20645;-69
2023/04/05 01:37:49;;;;;;;4.68;3.45;;;;;;;0.37;71.15;101914.56;4980042;28;20581;-69
2023/04/05 01:40:21;;;;;;;4.85;3.30;;;;;;;0.39;72.07;101921.44;4978875;28;20196;-69
2023/04/05 01:42:50;;;;;;;5.63;3.80;;;;;;;0.50;70.86;101917.16;4981514;28;20191;-69
2023/04/05 01:45:21;;;;;;;3.85;3.10;;;;;;;0.54;71.39;101910.63;4980957;28;20200;-68
2023/04/05 01:47:50;;;;;;;5.90;3.53;;;;;;;0.39;70.80;101918.78;4981725;28;20251;-68
2023/04/05 01:50:20;;;;;;;4.72;3.80;;;;;;;0.26;71.47;101923.31;4990636;28;20227;-69
2023/04/05 01:52:49;;;;;;;9.35;4.85;;;;;;;0.10;71.59;101916.56;4978607;28;20659;-69
2023/04/05 01:55:19;;;;;;;11.55;5.40;;;;;;;0.40;72.35;101915.16;4976425;28;20203;-69
2023/04/05 01:57:48;;;;;;;5.53;3.13;;;;;;;0.47;72.54;101909.41;4978491;28;20246;-69
2023/04/05 02:00:17;;;;;;;3.67;3.35;;;;;;;0.46;72.28;101910.34;4985540;28;20226;-68
2023/04/05 02:02:48;;;;;;;6.80;3.25;;;;;;;0.39;72.16;101905.47;4980540;28;20240;-69
2023/04/05 02:05:17;;;;;;;5.72;4.25;;;;;;;0.56;71.99;101906.06;4982155;28;20200;-69
2023/04/05 02:07:47;;;;;;;4.55;3.38;;;;;;;0.70;72.20;101909.41;4978029;28;20180;-69
2023/04/05 02:10:22;;;;;;;6.10;3.97;;;;;;;0.82;72.04;101905.00;4972726;28;20569;-71
2023/04/05 02:12:51;;;;;;;7.57;4.30;;;;;;;0.67;71.15;101906.13;4979330;28;20218;-68
2023/04/05 02:15:20;;;;;;;4.95;3.70;;;;;;;1.00;71.19;101903.59;4975873;28;20663;-68
2023/04/05 02:17:52;;;;;;;4.72;3.40;;;;;;;0.89;70.61;101906.22;4981939;28;20218;-68
2023/04/05 02:20:24;;;;;;;6.85;3.80;;;;;;;1.11;71.67;101900.97;4976257;28;20199;-68
2023/04/05 02:22:54;;;;;;;6.32;3.70;;;;;;;1.18;70.48;101896.84;4976017;28;20218;-69
2023/04/05 02:25:23;;;;;;;5.10;3.10;;;;;;;1.22;70.80;101892.97;4976715;28;20191;-67
2023/04/05 02:27:52;;;;;;;7.28;3.30;;;;;;;1.26;70.58;101901.59;4976554;28;20729;-69
2023/04/05 02:30:22;;;;;;;7.45;3.60;;;;;;;1.25;70.31;101898.09;4978145;28;20239;-66
2023/04/05 02:32:53;;;;;;;3.63;3.13;;;;;;;1.23;71.17;101889.34;4975276;28;20666;-67
2023/04/05 02:35:22;;;;;;;6.60;4.53;;;;;;;1.20;70.93;101894.94;4975624;28;20208;-68
2023/04/05 02:37:51;;;;;;;7.38;4.63;;;;;;;1.27;70.53;101888.16;4975151;28;20294;-69
2023/04/05 02:40:21;;;;;;;8.05;4.10;;;;;;;1.21;71.01;101885.13;4977018;28;20188;-69
2023/04/05 02:42:51;;;;;;;6.10;4.18;;;;;;;1.34;71.39;101887.69;4975857;28;20204;-68
2023/04/05 02:45:20;;;;;;;6.38;3.95;;;;;;;1.34;71.95;101885.00;4977832;28;20222;-68
2023/04/05 02:47:50;;;;;;;7.85;4.85;;;;;;;1.43;71.04;101889.63;4976383;28;20200;-68
2023/04/05 02:50:22;;;;;;;6.65;4.75;;;;;;;1.46;71.59;101886.72;4982404;28;20194;-69
2023/04/05 02:52:51;;;;;;;6.68;4.80;;;;;;;1.51;71.37;101885.38;4983728;28;20770;-68
2023/04/05 02:55:21;;;;;;;7.22;4.07;;;;;;;1.53;71.41;101882.63;4978685;28;20229;-69
2023/04/05 02:57:50;;;;;;;4.93;4.32;;;;;;;1.45;71.02;101877.88;4977556;28;20206;-69
2023/04/05 03:00:27;;;;;;;5.15;4.03;;;;;;;1.43;71.05;101878.97;4987410;28;20701;-68
2023/04/05 03:02:58;;;;;;;7.32;3.25;;;;;;;1.35;70.42;101878.72;4979992;28;20235;-68
2023/04/05 03:05:29;;;;;;;4.63;3.40;;;;;;;1.36;71.67;101875.06;4980846;28;20196;-68
2023/04/05 03:08:01;;;;;;;5.80;4.13;;;;;;;1.30;71.13;101869.25;4977426;28;20223;-69
2023/04/05 03:10:34;;;;;;;4.75;3.40;;;;;;;1.21;71.57;101869.13;4980571;28;20203;-68
2023/04/05 03:13:14;;;;;;;9.35;4.05;;;;;;;1.33;72.39;101867.31;4983405;28;20719;-69
2023/04/05 03:15:45;;;;;;;5.20;3.50;;;;;;;1.26;71.58;101865.09;4979200;28;20216;-69
2023/04/05 03:18:17;;;;;;;11.23;4.00;;;;;;;1.23;72.56;101862.69;4979043;28;20223;-68
2023/04/05 03:20:49;;;;;;;7.28;5.00;;;;;;;1.28;72.83;101859.66;4985088;28;20215;-68
2023/04/05 03:23:25;;;;;;;9.60;4.53;;;;;;;1.29;72.40;101867.56;4979211;28;20242;-69
2023/04/05 03:25:56;;;;;;;4.10;3.15;;;;;;;1.28;72.00;101862.34;4983276;28;20195;-68
2023/04/05 03:28:53;;;;;;;6.70;3.20;;;;;;;1.41;72.99;101864.88;4985675;28;20216;-67
2023/04/05 03:31:29;;;;;;;6.40;3.97;;;;;;;1.24;71.78;101860.88;4988476;28;20196;-69
2023/04/05 03:34:02;;;;;;;4.20;2.63;;;;;;;1.25;73.09;101871.44;4991099;28;20238;-68
2023/04/05 03:36:44;;;;;;;8.32;3.38;;;;;;;1.31;73.30;101857.59;4994948;28;20234;-67
2023/04/05 03:39:24;;;;;;;5.95;3.75;;;;;;;1.38;73.33;101862.47;4990024;28;20207;-69
2023/04/05 03:41:55;;;;;;;6.10;3.40;;;;;;;1.57;72.58;101854.72;4987003;28;20225;-67
2023/04/05 03:44:24;;;;;;;4.50;3.22;;;;;;;1.65;72.05;101863.81;4984427;28;20212;-70
2023/04/05 03:46:54;;;;;;;6.53;2.72;;;;;;;1.61;72.39;101854.34;4983753;28;20218;-69
2023/04/05 03:49:25;;;;;;;6.20;3.33;;;;;;;1.62;72.30;101853.41;4986306;28;20216;-67
2023/04/05 03:51:55;;;;;;;8.68;4.40;;;;;;;1.68;71.98;101852.06;4981187;28;20210;-68
2023/04/05 03:54:24;;;;;;;5.97;3.83;;;;;;;1.70;72.13;101858.09;4977575;28;20199;-68
2023/04/05 03:56:57;;;;;;;7.50;4.07;;;;;;;1.72;71.64;101856.19;4976076;28;20208;-68
2023/04/05 03:59:26;;;;;;;6.63;4.30;;;;;;;1.67;71.51;101855.69;4979586;28;20246;-69
2023/04/05 04:01:56;;;;;;;12.45;3.53;;;;;;;1.65;71.73;101852.28;4975837;28;20196;-69
2023/04/05 04:04:26;;;;;;;5.68;3.50;;;;;;;1.60;71.88;101849.97;4975151;28;20215;-70
2023/04/05 04:06:58;;;;;;;13.15;4.35;;;;;;;1.57;72.25;101844.06;4967915;28;20216;-68
2023/04/05 04:09:29;;;;;;;11.50;3.80;;;;;;;1.61;71.87;101853.50;4975386;28;20217;-69
2023/04/05 04:12:06;;;;;;;5.22;3.33;;;;;;;1.60;70.90;101854.47;4974285;28;20204;-67
2023/04/05 04:14:41;;;;;;;7.35;3.42;;;;;;;1.59;71.73;101848.31;4980349;28;20259;-70
2023/04/05 04:17:33;;;;;;;3.70;2.80;;;;;;;1.53;71.74;101847.94;4976778;28;20192;-68
2023/04/05 04:20:14;;;;;;;8.48;4.50;;;;;;;1.62;72.61;101853.41;4979240;28;20216;-68
2023/04/05 04:22:59;;;;;;;4.22;3.03;;;;;;;1.68;71.78;101852.91;4984312;28;20210;-69
2023/04/05 04:25:53;;;;;;;5.85;3.25;;;;;;;1.69;71.47;101849.25;4962325;28;20210;-69
2023/04/05 04:28:42;;;;;;;5.45;3.35;;;;;;;1.68;71.54;101852.06;4978452;28;20230;-69
2023/04/05 04:31:29;;;;;;;6.65;3.88;;;;;;;1.67;71.68;101845.03;4977987;28;20199;-67
2023/04/05 04:34:29;;;;;;;10.23;3.47;;;;;;;1.63;72.08;101840.91;5207850;23;20223;-66
2023/04/05 04:37:16;;;;;;;6.00;3.28;;;;;;;1.75;72.67;101839.91;4957191;28;20231;-67
2023/04/05 04:40:07;;;;;;;9.85;4.10;;;;;;;1.84;72.17;101847.19;4974354;28;20204;-69
2023/04/05 04:42:58;;;;;;;5.95;3.30;;;;;;;1.78;71.51;101858.38;4967066;28;20220;-68
2023/04/05 04:45:53;;;;;;;9.70;3.80;;;;;;;1.81;72.06;101860.78;4969696;28;20279;-67
2023/04/05 04:48:36;;;;;;;5.60;3.80;;;;;;;1.75;70.98;101850.59;4979392;28;20215;-69
2023/04/05 04:51:17;;;;;;;6.60;3.92;;;;;;;1.43;71.39;101855.81;4977022;28;20235;-69
2023/04/05 04:53:46;;;;;;;5.85;3.67;;;;;;;1.64;72.27;101855.94;4977602;28;20214;-68
2023/04/05 04:56:17;;;;;;;7.82;3.97;;;;;;;1.53;71.98;101848.78;4977132;28;20196;-67
2023/04/05 04:58:46;;;;;;;3.88;2.67;;;;;;;1.55;71.77;101846.00;4983188;28;20303;-66
2023/04/05 05:01:15;;;;;;;6.65;4.50;;;;;;;1.55;71.98;101848.69;4981677;28;20431;-69
2023/04/05 05:03:44;;;;;;;7.07;3.95;;;;;;;1.59;71.51;101852.78;4973555;28;20201;-69
2023/04/05 05:06:18;;;;;;;9.50;4.47;;;;;;;1.56;71.19;101850.34;4980934;28;20558;-69
2023/04/05 05:08:47;;;;;;;5.75;3.63;;;;;;;1.71;69.76;101854.47;4973672;28;20291;-69
2023/04/05 05:11:18;;;;;;;7.63;4.22;;;;;;;1.51;70.12;101852.53;4976968;28;20191;-68
2023/04/05 05:13:47;;;;;;;5.70;3.92;;;;;;;1.55;69.39;101848.69;4975716;28;20224;-69
2023/04/05 05:16:24;;;;;;;6.07;4.40;;;;;;;1.51;68.99;101840.03;4953010;28;20302;-67
2023/04/05 05:18:53;;;;;;;5.80;3.70;;;;;;;1.57;70.02;101854.72;4983503;28;20215;-66
2023/04/05 05:21:25;;;;;;;4.78;4.07;;;;;;;1.72;68.40;101837.50;4963570;28;20188;-68
2023/04/05 05:23:58;;;;;;;4.60;3.33;;;;;;;1.76;68.47;101849.63;4961509;28;20207;-70
2023/04/05 05:26:28;;;;;;;6.22;3.03;;;;;;;1.88;68.26;101846.00;4987069;28;20724;-69
2023/04/05 05:29:01;;;;;;;6.18;3.47;;;;;;;2.03;67.13;101846.59;4976833;28;20226;-68
2023/04/05 05:31:33;;;;;;;6.88;3.33;;;;;;;1.92;67.37;101849.25;4964068;28;20195;-70
2023/04/05 05:34:03;;;;;;;9.60;3.45;;;;;;;2.28;67.61;101840.91;4978742;28;20589;-69
2023/04/05 05:36:37;;;;;;;5.95;3.65;;;;;;;2.30;66.84;101843.47;4965436;28;20222;-70
2023/04/05 05:39:06;;;;;;;5.95;2.80;;;;;;;2.39;67.39;101848.06;4972078;28;20208;-68
2023/04/05 05:41:37;;;;;;;5.82;3.90;;;;;;;2.38;66.18;101846.34;4985044;28;20280;-67
2023/04/05 05:44:07;;;;;;;7.88;3.63;;;;;;;2.48;65.62;101840.13;4976576;28;20193;-67
2023/04/05 05:46:36;;;;;;;4.50;2.65;;;;;;;2.65;64.81;101836.06;4980675;28;20212;-66
2023/04/05 05:49:05;;;;;;;6.43;3.20;;;;;;;2.65;66.02;101840.56;4996847;28;20212;-68
2023/04/05 05:51:34;;;;;;;8.57;3.83;;;;;;;2.73;65.20;101830.06;4991139;28;20217;-67
2023/04/05 05:54:03;;;;;;;10.07;4.28;;;;;;;2.50;64.53;101840.00;4991686;28;20196;-67
2023/04/05 05:56:32;;;;;;;4.57;3.50;;;;;;;2.37;65.14;101839.34;4987566;28;20621;-66
2023/04/05 05:59:03;;;;;;;4.68;2.95;;;;;;;2.59;64.23;101836.56;4982441;28;20606;-67
2023/04/05 06:01:33;;;;;;;8.07;3.88;;;;;;;2.63;64.61;101836.19;4987530;28;20262;-67
2023/04/05 06:04:02;;;;;;;7.88;3.53;;;;;;;2.54;64.32;101833.44;4980321;28;20324;-67
2023/04/05 06:06:32;;;;;;;5.53;3.13;;;;;;;2.76;63.98;101830.66;4978536;28;20196;-68
2023/04/05 06:09:04;;;;;;;4.65;3.05;;;;;;;2.62;64.14;101838.97;4981682;28;20209;-68
2023/04/05 06:11:32;;;;;;;23.10;16.23;;;;;;;2.61;64.40;101832.78;4985932;28;20702;-67
2023/04/05 06:14:06;;;;;;;6.72;6.07;;;;;;;2.60;64.38;101847.16;4976825;28;20203;-67
2023/04/05 06:16:35;;;;;;;5.18;4.68;;;;;;;2.76;64.23;101844.00;4976008;28;20197;-68
2023/04/05 06:19:04;;;;;;;7.75;3.92;;;;;;;2.90;62.62;101841.06;4983214;28;20221;-67
2023/04/05 06:21:33;;;;;;;3.00;2.70;;;;;;;2.70;63.24;101841.88;4975660;28;20729;-68
2023/04/05 06:24:02;;;;;;;8.77;4.47;;;;;;;2.81;63.26;101841.81;4977129;28;20196;-67
2023/04/05 06:26:31;;;;;;;7.43;4.00;;;;;;;2.85;63.16;101835.25;4961044;28;20664;-67
2023/04/05 06:29:00;;;;;;;11.35;3.25;;;;;;;3.02;62.96;101831.97;4986165;28;20224;-66
2023/04/05 06:31:35;;;;;;;4.50;3.50;;;;;;;3.14;62.72;101845.28;4982607;28;20188;-67
2023/04/05 06:34:05;;;;;;;7.88;5.25;;;;;;;3.06;62.24;101838.75;4980148;28;20235;-68
2023/04/05 06:36:34;;;;;;;4.68;3.50;;;;;;;2.94;62.69;101842.50;4982920;28;20191;-67
2023/04/05 06:39:03;;;;;;;11.20;4.43;;;;;;;3.15;62.44;101841.66;4979417;28;20294;-67
2023/04/05 06:41:32;;;;;;;6.07;4.63;;;;;;;3.22;62.57;101840.13;4977465;28;20206;-67
2023/04/05 06:44:04;;;;;;;4.75;3.90;;;;;;;3.36;62.43;101843.31;4988900;28;20393;-69
2023/04/05 06:46:35;;;;;;;9.93;4.20;;;;;;;3.41;62.01;101834.88;4985611;28;20204;-68
2023/04/05 06:49:04;;;;;;;15.02;4.60;;;;;;;3.74;61.82;101839.09;4975716;28;20212;-66
2023/04/05 06:51:33;;;;;;;8.13;4.18;;;;;;;4.05;59.88;101838.09;4977258;28;20561;-68
2023/04/05 06:54:02;;;;;;;5.63;3.83;;;;;;;3.94;60.22;101839.06;4978248;28;20628;-69
2023/04/05 06:56:31;;;;;;;5.32;4.00;;;;;;;3.81;60.63;101834.91;4978619;28;20255;-66
2023/04/05 06:59:01;;;;;;;10.52;5.47;;;;;;;4.14;60.21;101834.59;4959979;28;20228;-66
2023/04/05 07:01:30;;;;;;;8.07;3.72;;;;;;;4.17;59.72;101833.44;4977824;28;20202;-65
2023/04/05 07:04:00;;;;;;;6.97;3.40;;;;;;;4.37;59.74;101832.50;4976554;28;20260;-66
2023/04/05 07:06:31;;;;;;;6.43;3.55;;;;;;;4.72;58.93;101831.97;4968118;28;20205;-67
2023/04/05 07:09:02;;;;;;;10.82;4.97;;;;;;;4.76;58.49;101820.81;4981220;28;20234;-68
2023/04/05 07:11:32;;;;;;;9.65;4.35;;;;;;;4.68;58.92;101820.69;4980219;28;20220;-69
2023/04/05 07:14:01;;;;;;;15.25;4.93;;;;;;;4.93;58.25;101823.78;4977649;28;20208;-69
2023/04/05 07:16:30;;;;;;;4.72;3.53;;;;;;;5.03;58.36;101821.94;4978496;28;20190;-66
2023/04/05 07:19:01;;;;;;;8.90;5.32;;;;;;;5.02;58.48;101820.22;4979842;28;20588;-66
2023/04/05 07:21:30;;;;;;;13.55;5.28;;;;;;;5.12;58.16;101829.09;4977409;28;20245;-68
2023/04/05 07:24:00;;;;;;;6.63;4.78;;;;;;;5.03;57.90;101832.66;4983671;28;20272;-68
2023/04/05 07:26:33;;;;;;;7.63;4.05;;;;;;;4.61;59.18;101824.91;4975799;28;20193;-67
2023/04/05 07:29:03;;;;;;;10.18;5.88;;;;;;;4.82;59.06;101825.63;4977615;28;20224;-68
2023/04/05 07:31:32;;;;;;;8.40;5.00;;;;;;;4.82;59.67;101830.97;4996689;28;20189;-68
2023/04/05 07:34:02;;;;;;;7.80;5.43;;;;;;;4.81;59.56;101831.97;4990955;28;20711;-67
2023/04/05 07:36:32;;;;;;;6.35;4.20;;;;;;;4.72;59.90;101832.81;4982334;28;20576;-69
2023/04/05 07:39:04;;;;;;;11.73;5.45;;;;;;;4.55;60.68;101836.19;4980209;28;20217;-65
2023/04/05 07:41:34;;;;;;;6.78;3.78;;;;;;;4.40;61.59;101845.66;4979933;28;20205;-68
2023/04/05 07:44:03;;;;;;;6.43;4.90;;;;;;;4.25;62.21;101837.16;4987948;28;20224;-66
2023/04/05 07:46:32;;;;;;;6.47;3.67;;;;;;;3.99;63.65;101832.44;4979007;28;20198;-68
2023/04/05 07:49:02;;;;;;;8.20;4.93;;;;;;;4.04;64.29;101827.50;4975618;28;20237;-68
2023/04/05 07:51:35;;;;;;;13.65;4.82;;;;;;;4.21;63.29;101826.84;4981526;28;20180;-66
2023/04/05 07:54:04;;;;;;;9.35;5.00;;;;;;;4.35;63.05;101823.78;4973794;28;20205;-67
2023/04/05 07:56:33;;;;;;;6.05;3.97;;;;;;;4.44;62.60;101822.09;4958297;28;20244;-66
2023/04/05 07:59:02;;;;;;;4.40;3.97;;;;;;;4.71;62.27;101820.38;4975733;28;20301;-66
2023/04/05 08:01:31;;;;;;;5.15;4.07;;;;;;;4.81;61.49;101821.22;4976088;28;20603;-68
2023/04/05 08:04:02;;;;;;;11.25;4.10;;;;;;;4.88;61.04;101832.25;4978783;28;20558;-68
2023/04/05 08:06:34;;;;;;;11.32;4.25;;;;;;;4.85;60.90;101829.84;4975593;28;20197;-68
2023/04/05 08:09:04;;;;;;;11.88;4.45;;;;;;;5.00;60.60;101832.94;4977302;28;20216;-68
2023/04/05 08:11:33;;;;;;;6.53;4.68;;;;;;;5.37;59.80;101833.00;4980534;28;20189;-68
2023/04/05 08:14:02;;;;;;;5.72;3.80;;;;;;;5.74;59.07;101831.16;4974430;28;20652;-69
2023/04/05 08:16:33;;;;;;;5.70;4.03;;;;;;;5.71;58.66;101826.09;4973644;28;20195;-66
2023/04/05 08:19:03;;;;;;;4.97;3.70;;;;;;;5.69;58.08;101825.41;4978521;28;20228;-67
2023/04/05 08:21:32;;;;;;;7.28;4.15;;;;;;;5.78;57.21;101829.88;4975694;28;20230;-66
2023/04/05 08:24:01;;;;;;;7.03;4.82;;;;;;;5.63;58.22;101813.41;4969667;28;20198;-67
2023/04/05 08:26:30;;;;;;;6.70;3.78;;;;;;;5.97;57.27;101821.75;4973682;28;20595;-67
2023/04/05 08:28:59;;;;;;;4.32;3.88;;;;;;;6.19;53.30;101819.66;4981642;28;20218;-68
2023/04/05 08:31:28;;;;;;;5.35;2.95;;;;;;;6.45;52.91;101820.59;4976233;28;20286;-67
2023/04/05 08:33:57;;;;;;;6.93;3.42;;;;;;;6.70;53.75;101814.44;4981525;28;20239;-69
2023/04/05 08:36:28;;;;;;;5.75;3.78;;;;;;;6.40;53.80;101823.72;4982237;28;20261;-68
2023/04/05 08:38:58;;;;;;;4.40;3.60;;;;;;;6.47;53.55;101824.84;4958279;28;20226;-68
2023/04/05 08:41:34;;;;;;;6.25;3.30;;;;;;;6.59;53.71;101825.44;4981033;28;20216;-68
2023/04/05 08:44:05;;;;;;;6.05;3.97;;;;;;;6.78;53.92;101816.34;4975262;28;20225;-67
2023/04/05 08:46:36;;;;;;;6.45;3.63;;;;;;;6.59;53.73;101817.34;4972283;28;20481;-68
2023/04/05 08:49:07;;;;;;;5.50;3.97;;;;;;;6.55;53.70;101814.13;4987179;28;20642;-69
2023/04/05 08:51:39;;;;;;;4.95;4.22;;;;;;;6.88;53.17;101811.72;4978669;28;20186;-68
2023/04/05 08:54:13;;;;;;;5.53;2.92;;;;;;;7.22;52.68;101809.97;4964689;28;20561;-67
2023/04/05 08:56:46;;;;;;;8.10;4.30;;;;;;;7.71;51.44;101821.03;4973620;28;20189;-68
2023/04/05 08:59:18;;;;;;;6.32;3.95;;;;;;;7.10;51.46;101815.78;4977343;28;20288;-68
2023/04/05 09:01:51;;;;;;;11.80;4.63;;;;;;;6.88;52.37;101819.81;4975932;28;20255;-67
2023/04/05 09:04:23;;;;;;;8.70;5.88;;;;;;;6.90;52.98;101812.44;4974826;28;20190;-68
2023/04/05 09:06:57;;;;;;;10.13;4.10;;;;;;;7.36;51.91;101812.06;4970185;28;20207;-67
2023/04/05 09:09:31;;;;;;;5.38;3.25;;;;;;;7.55;50.72;101812.88;4980429;28;20227;-68
2023/04/05 09:12:00;;;;;;;7.43;4.03;;;;;;;7.74;50.54;101809.94;4990360;28;20282;-67
2023/04/05 09:14:33;;;;;;;5.53;3.63;;;;;;;7.78;50.95;101806.75;4986933;28;20642;-67
2023/04/05 09:17:03;;;;;;;8.93;3.88;;;;;;;8.02;49.72;101807.84;4983300;28;20221;-68
2023/04/05 09:19:32;;;;;;;8.57;3.30;;;;;;;7.84;49.78;101806.09;4982532;28;20247;-67
2023/04/05 09:22:06;;;;;;;8.50;3.85;;;;;;;7.63;49.84;101813.75;4978756;28;20836;-66
2023/04/05 09:24:41;;;;;;;7.80;4.57;;;;;;;7.82;50.23;101808.13;4981367;28;20661;-67
2023/04/05 09:27:12;;;;;;;5.60;4.13;;;;;;;8.43;49.07;101806.13;4988683;28;20195;-67
2023/04/05 09:29:43;;;;;;;4.47;3.33;;;;;;;8.04;49.10;101811.22;4966255;28;20282;-66
2023/04/05 09:32:14;;;;;;;6.80;3.70;;;;;;;7.91;49.95;101803.59;4978775;28;20287;-66
2023/04/05 09:34:44;;;;;;;7.45;4.55;;;;;;;7.61;50.68;101798.75;4982159;28;20720;-65
2023/04/05 09:37:23;;;;;;;9.52;3.78;;;;;;;7.65;50.41;101800.13;4965528;28;20256;-68
2023/04/05 09:40:03;;;;;;;10.07;4.82;;;;;;;7.63;50.96;101807.53;4987556;28;20219;-68
2023/04/05 09:42:43;;;;;;;8.20;4.05;;;;;;;7.35;51.65;101799.63;4982812;28;20218;-67
2023/04/05 09:45:13;;;;;;;5.15;3.95;;;;;;;7.20;52.09;101806.59;4986063;28;20203;-66
2023/04/05 09:47:56;;;;;;;10.50;4.68;;;;;;;6.94;52.69;101800.34;4966098;28;20203;-68
2023/04/05 09:50:26;;;;;;;5.97;3.65;;;;;;;7.13;52.32;101802.84;4977804;28;20193;-68
2023/04/05 09:53:09;;;;;;;4.30;3.90;;;;;;;7.31;51.66;101797.44;4959844;28;20238;-68
2023/04/05 09:55:38;;;;;;;12.88;4.10;;;;;;;7.43;51.61;101796.97;4979859;28;20192;-68
2023/04/05 09:58:13;;;;;;;6.38;4.40;;;;;;;8.08;50.56;101794.56;4980747;28;20209;-68
2023/04/05 10:00:52;;;;;;;7.72;4.78;;;;;;;8.59;49.22;101793.50;4979884;28;20193;-68
2023/04/05 10:03:47;;;;;;;6.85;3.58;;;;;;;8.89;47.63;101786.59;4981979;28;20572;-67
2023/04/05 10:06:17;;;;;;;7.43;3.33;;;;;;;9.17;47.15;101787.06;4983729;28;20220;-67
2023/04/05 10:08:48;;;;;;;5.20;4.20;;;;;;;8.95;46.84;101785.94;4986163;28;20216;-68
2023/04/05 10:11:20;;;;;;;6.10;4.13;;;;;;;7.82;48.14;101777.63;4980660;28;20195;-69
2023/04/05 10:13:50;;;;;;;9.80;7.05;;;;;;;8.10;47.91;101787.16;4978671;28;20333;-67
2023/04/05 10:16:24;;;;;;;5.68;4.10;;;;;;;8.19;48.05;101788.84;4960428;28;20232;-69
2023/04/05 10:18:54;;;;;;;6.60;5.90;;;;;;;8.19;47.72;101790.69;4990118;28;20225;-68
2023/04/05 10:21:27;;;;;;;7.22;4.40;;;;;;;7.84;48.38;101786.41;4985993;28;20204;-68
2023/04/05 10:24:17;;;;;;;7.25;3.30;;;;;;;7.36;49.44;101787.84;4985072;28;20236;-69
2023/04/05 10:26:56;;;;;;;5.32;4.20;;;;;;;7.70;49.13;101789.69;4986903;28;20220;-67
2023/04/05 10:29:30;;;;;;;6.43;4.20;;;;;;;7.30;49.79;101793.88;4989140;28;20226;-69
2023/04/05 10:32:11;;;;;;;6.00;3.50;;;;;;;7.83;48.71;101787.41;4989600;28;20193;-69
2023/04/05 10:34:48;;;;;;;9.88;4.15;;;;;;;7.92;48.19;101786.44;4989667;28;20205;-69
2023/04/05 10:37:28;;;;;;;7.45;6.50;;;;;;;8.04;48.92;101785.09;4982679;28;20301;-68
2023/04/05 10:40:03;;;;;;;6.45;4.18;;;;;;;8.03;48.29;101778.03;4973918;28;20228;-68
2023/04/05 10:42:41;;;;;;;7.28;4.55;;;;;;;8.20;47.60;101782.47;4979071;28;20203;-68
2023/04/05 10:45:16;;;;;;;4.45;3.92;;;;;;;7.94;48.28;101784.38;4981517;28;20256;-68
2023/04/05 10:47:54;;;;;;;3.92;3.55;;;;;;;7.77;48.34;101779.97;4964936;28;20571;-70
2023/04/05 10:50:25;;;;;;;8.82;8.02;;;;;;;8.15;47.89;101774.03;4980591;28;20199;-67
2023/04/05 10:52:56;;;;;;;5.22;4.15;;;;;;;8.17;48.07;101781.94;4983441;28;20216;-68
2023/04/05 10:55:28;;;;;;;7.13;4.90;;;;;;;7.56;49.36;101772.28;4982298;28;20590;-66
2023/04/05 10:57:58;;;;;;;12.32;5.00;;;;;;;7.32;49.72;101777.53;4978188;28;20269;-68
2023/04/05 11:00:28;;;;;;;5.53;4.88;;;;;;;7.55;49.93;101769.78;4975857;28;20195;-68
2023/04/05 11:02:57;;;;;;;3.35;2.75;;;;;;;7.58;49.71;101774.84;4976921;28;20218;-67
2023/04/05 11:05:33;;;;;;;5.43;3.42;;;;;;;7.99;48.93;101771.28;4980209;28;20209;-69
2023/04/05 11:08:07;;;;;;;6.50;3.60;;;;;;;7.98;49.11;101766.91;4980595;28;20714;-68
2023/04/05 11:10:39;;;;;;;8.05;4.45;;;;;;;8.33;48.05;101768.50;4978674;28;20726;-68
2023/04/05 11:13:10;;;;;;;5.85;4.13;;;;;;;8.41;48.33;101770.41;4981156;28;20622;-68
2023/04/05 11:15:40;;;;;;;5.10;4.32;;;;;;;8.48;48.15;101760.59;4979507;28;20699;-68
2023/04/05 11:18:10;;;;;;;5.47;4.13;;;;;;;8.50;48.13;101758.59;4977260;28;20223;-67
2023/04/05 11:20:45;;;;;;;6.38;3.90;;;;;;;8.58;48.01;101756.75;4982069;28;20284;-67
2023/04/05 11:23:16;;;;;;;4.95;4.22;;;;;;;8.08;49.26;101759.53;4978249;28;20295;-68
2023/04/05 11:25:52;;;;;;;3.70;3.20;;;;;;;7.92;49.76;101762.16;4974096;28;20276;-67
2023/04/05 11:28:25;;;;;;;4.70;3.40;;;;;;;7.64;50.80;101758.03;4977325;28;20224;-68
2023/04/05 11:30:57;;;;;;;6.47;3.65;;;;;;;7.51;51.18;101749.53;4979346;28;20256;-69
2023/04/05 11:33:55;;;;;;;4.63;4.10;;;;;;;7.65;50.93;101755.16;4954119;28;20227;-69
2023/04/05 11:36:36;;;;;;;5.38;3.95;;;;;;;7.59;50.52;101754.97;4967648;28;20208;-67
2023/04/05 11:39:27;;;;;;;3.85;3.03;;;;;;;7.61;50.41;101758.34;4980969;28;20585;-70
2023/04/05 11:42:05;;;;;;;4.82;3.25;;;;;;;7.71;50.40;101757.19;5088775;23;20228;-69
2023/04/05 11:44:45;;;;;;;7.53;4.35;;;;;;;7.99;50.47;101763.19;4998489;28;20575;-72
2023/04/05 11:47:20;;;;;;;3.38;3.08;;;;;;;8.19;49.76;101761.88;4998815;28;20192;-72
2023/04/05 11:49:51;;;;;;;5.75;3.67;;;;;;;8.24;49.31;101751.44;4996787;28;20208;-71
2023/04/05 11:52:21;;;;;;;3.95;3.42;;;;;;;7.87;49.98;101756.44;5000006;28;20190;-69
2023/04/05 11:54:52;;;;;;;8.13;3.95;;;;;;;7.98;49.97;101757.97;4994076;28;20255;-71
2023/04/05 11:57:23;;;;;;;5.75;2.75;;;;;;;7.67;51.31;101755.00;4989959;28;20460;-71
2023/04/05 11:59:53;;;;;;;7.82;4.05;;;;;;;7.42;51.69;101762.13;4988718;28;20313;-70